sensor_id;sensor_type;location;lat;lon;timestamp;pressure;altitude;pressure_sealevel;temperature;humidity
75063;BME280;63981;51.052;13.754;2023-06-14T00:00:21;100378.00;;;11.91;67.33
75063;BME280;63981;51.052;13.754;2023-06-14T00:02:48;100352.53;;;11.65;68.28
75063;BME280;63981;51.052;13.754;2023-06-14T00:05:13;100384.31;;;11.76;68.23
75063;BME280;63981;51.052;13.754;2023-06-14T00:07:42;100421.97;;;12.05;67.67
75063;BME280;63981;51.052;13.754;2023-06-14T00:10:10;100417.31;;;11.96;68.98
75063;BME280;63981;51.052;13.754;2023-06-14T00:12:37;100417.84;;;12.01;67.89
75063;BME280;63981;51.052;13.754;2023-06-14T00:15:04;100404.63;;;12.14;68.18
75063;BME280;63981;51.052;13.754;2023-06-14T00:17:30;100390.59;;;12.00;68.91
75063;BME280;63981;51.052;13.754;2023-06-14T00:19:58;100416.44;;;12.21;68.38
75063;BME280;63981;51.052;13.754;2023-06-14T00:22:24;100413.81;;;12.08;68.56
75063;BME280;63981;51.052;13.754;2023-06-14T00:24:51;100317.66;;;11.47;68.27
75063;BME280;63981;51.052;13.754;2023-06-14T00:27:17;100388.66;;;11.77;69.03
75063;BME280;63981;51.052;13.754;2023-06-14T00:29:43;100412.69;;;11.87;68.41
75063;BME280;63981;51.052;13.754;2023-06-14T00:32:09;100409.59;;;11.80;69.68
75063;BME280;63981;51.052;13.754;2023-06-14T00:34:35;100406.00;;;11.81;69.92
75063;BME280;63981;51.052;13.754;2023-06-14T00:37:01;100409.59;;;11.93;69.82
75063;BME280;63981;51.052;13.754;2023-06-14T00:39:27;100372.16;;;11.48;69.45
75063;BME280;63981;51.052;13.754;2023-06-14T00:41:54;100377.63;;;11.45;70.39
75063;BME280;63981;51.052;13.754;2023-06-14T00:44:20;100401.13;;;11.75;69.72
75063;BME280;63981;51.052;13.754;2023-06-14T00:46:47;100409.75;;;11.64;70.32
75063;BME280;63981;51.052;13.754;2023-06-14T00:49:14;100418.28;;;11.42;70.76
75063;BME280;63981;51.052;13.754;2023-06-14T00:51:42;100372.25;;;10.94;71.49
75063;BME280;63981;51.052;13.754;2023-06-14T00:54:08;100339.34;;;10.73;71.64
75063;BME280;63981;51.052;13.754;2023-06-14T00:56:36;100426.31;;;11.14;72.04
75063;BME280;63981;51.052;13.754;2023-06-14T00:59:03;100411.97;;;11.18;72.36
75063;BME280;63981;51.052;13.754;2023-06-14T01:01:30;100320.47;;;10.52;73.09
75063;BME280;63981;51.052;13.754;2023-06-14T01:04:00;100409.06;;;10.96;73.14
75063;BME280;63981;51.052;13.754;2023-06-14T01:12:52;100414.44;;;10.94;72.47
75063;BME280;63981;51.052;13.754;2023-06-14T01:15:41;100357.84;;;10.58;74.69
75063;BME280;63981;51.052;13.754;2023-06-14T01:18:28;100409.66;;;10.86;72.91
75063;BME280;63981;51.052;13.754;2023-06-14T01:21:21;100416.31;;;10.92;74.54
75063;BME280;63981;51.052;13.754;2023-06-14T01:24:08;100415.03;;;10.85;75.18
75063;BME280;63981;51.052;13.754;2023-06-14T01:26:55;100418.81;;;10.81;74.60
75063;BME280;63981;51.052;13.754;2023-06-14T01:29:45;100409.88;;;11.23;74.08
75063;BME280;63981;51.052;13.754;2023-06-14T01:32:33;100382.53;;;11.11;73.98
75063;BME280;63981;51.052;13.754;2023-06-14T01:35:19;100324.66;;;10.96;73.80
75063;BME280;63981;51.052;13.754;2023-06-14T01:38:03;100397.81;;;11.46;73.57
75063;BME280;63981;51.052;13.754;2023-06-14T01:40:49;100341.03;;;11.13;73.37
75063;BME280;63981;51.052;13.754;2023-06-14T01:43:35;100388.00;;;11.48;73.09
75063;BME280;63981;51.052;13.754;2023-06-14T01:46:23;100392.63;;;11.57;73.22
75063;BME280;63981;51.052;13.754;2023-06-14T01:49:07;100394.09;;;11.36;73.20
75063;BME280;63981;51.052;13.754;2023-06-14T01:51:52;100398.81;;;11.31;73.97
75063;BME280;63981;51.052;13.754;2023-06-14T01:54:36;100311.63;;;10.80;74.58
75063;BME280;63981;51.052;13.754;2023-06-14T01:57:25;100404.81;;;11.33;74.31
75063;BME280;63981;51.052;13.754;2023-06-14T02:00:11;100404.22;;;11.42;74.50
75063;BME280;63981;51.052;13.754;2023-06-14T02:02:59;100379.88;;;11.11;74.57
75063;BME280;63981;51.052;13.754;2023-06-14T02:05:44;100404.19;;;11.29;74.04
75063;BME280;63981;51.052;13.754;2023-06-14T02:08:29;100369.03;;;10.89;74.43
75063;BME280;63981;51.052;13.754;2023-06-14T02:11:13;100415.03;;;11.12;74.62
75063;BME280;63981;51.052;13.754;2023-06-14T02:13:58;100409.59;;;11.01;75.11
75063;BME280;63981;51.052;13.754;2023-06-14T02:16:44;100421.69;;;11.17;74.98
75063;BME280;63981;51.052;13.754;2023-06-14T02:19:33;100415.44;;;11.18;74.71
75063;BME280;63981;51.052;13.754;2023-06-14T02:22:17;100276.41;;;10.54;74.63
75063;BME280;63981;51.052;13.754;2023-06-14T02:25:02;100380.03;;;10.96;74.62
75063;BME280;63981;51.052;13.754;2023-06-14T02:27:47;100414.44;;;10.94;75.38
75063;BME280;63981;51.052;13.754;2023-06-14T02:30:31;100399.88;;;10.74;75.46
75063;BME280;63981;51.052;13.754;2023-06-14T02:33:16;100400.81;;;10.73;74.94
75063;BME280;63981;51.052;13.754;2023-06-14T02:36:02;100398.41;;;10.70;76.01
75063;BME280;63981;51.052;13.754;2023-06-14T02:38:47;100419.38;;;10.72;76.27
75063;BME280;63981;51.052;13.754;2023-06-14T02:41:31;100428.13;;;10.72;76.55
75063;BME280;63981;51.052;13.754;2023-06-14T02:44:19;100404.16;;;10.48;76.60
75063;BME280;63981;51.052;13.754;2023-06-14T02:47:04;100345.47;;;10.03;76.58
75063;BME280;63981;51.052;13.754;2023-06-14T02:49:49;100393.38;;;10.24;76.93
75063;BME280;63981;51.052;13.754;2023-06-14T02:52:33;100434.75;;;10.51;77.03
75063;BME280;63981;51.052;13.754;2023-06-14T02:55:18;100243.47;;;9.22;77.15
75063;BME280;63981;51.052;13.754;2023-06-14T02:58:02;100392.53;;;10.24;76.90
75063;BME280;63981;51.052;13.754;2023-06-14T03:00:47;100406.91;;;10.32;77.62
75063;BME280;63981;51.052;13.754;2023-06-14T03:03:31;100399.66;;;10.36;76.83
75063;BME280;63981;51.052;13.754;2023-06-14T03:06:16;100431.78;;;10.43;77.65
75063;BME280;63981;51.052;13.754;2023-06-14T03:08:44;100431.38;;;10.34;77.20
75063;BME280;63981;51.052;13.754;2023-06-14T03:11:17;100433.63;;;10.26;77.69
75063;BME280;63981;51.052;13.754;2023-06-14T03:13:47;100424.75;;;10.13;78.23
75063;BME280;63981;51.052;13.754;2023-06-14T03:16:13;100414.41;;;9.96;78.74
75063;BME280;63981;51.052;13.754;2023-06-14T03:18:40;100423.72;;;10.01;78.93
75063;BME280;63981;51.052;13.754;2023-06-14T03:21:06;100441.63;;;10.25;77.99
75063;BME280;63981;51.052;13.754;2023-06-14T03:23:36;100433.28;;;10.32;78.67
75063;BME280;63981;51.052;13.754;2023-06-14T03:26:03;100262.28;;;9.30;78.12
75063;BME280;63981;51.052;13.754;2023-06-14T03:28:30;100377.94;;;10.04;78.49
75063;BME280;63981;51.052;13.754;2023-06-14T03:30:56;100438.06;;;10.40;77.95
75063;BME280;63981;51.052;13.754;2023-06-14T03:33:22;100443.50;;;10.51;77.89
75063;BME280;63981;51.052;13.754;2023-06-14T03:35:50;100411.63;;;10.27;78.17
75063;BME280;63981;51.052;13.754;2023-06-14T03:38:17;100457.44;;;10.39;78.89
75063;BME280;63981;51.052;13.754;2023-06-14T03:40:43;100455.34;;;10.73;77.34
75063;BME280;63981;51.052;13.754;2023-06-14T03:43:10;100449.31;;;11.12;76.69
75063;BME280;63981;51.052;13.754;2023-06-14T03:45:36;100461.97;;;11.34;76.08
75063;BME280;63981;51.052;13.754;2023-06-14T03:48:02;100462.88;;;11.33;75.23
75063;BME280;63981;51.052;13.754;2023-06-14T03:50:30;100465.09;;;11.26;76.18
75063;BME280;63981;51.052;13.754;2023-06-14T03:52:58;100467.19;;;10.94;77.19
75063;BME280;63981;51.052;13.754;2023-06-14T03:55:24;100471.41;;;10.97;76.71
75063;BME280;63981;51.052;13.754;2023-06-14T03:57:51;100480.06;;;10.99;77.16
75063;BME280;63981;51.052;13.754;2023-06-14T04:00:17;100483.88;;;11.21;76.28
75063;BME280;63981;51.052;13.754;2023-06-14T04:02:44;100480.34;;;11.75;74.64
75063;BME280;63981;51.052;13.754;2023-06-14T04:05:10;100483.19;;;11.72;74.35
75063;BME280;63981;51.052;13.754;2023-06-14T04:07:42;100488.19;;;11.49;75.58
75063;BME280;63981;51.052;13.754;2023-06-14T04:10:12;100445.78;;;11.26;75.48
75063;BME280;63981;51.052;13.754;2023-06-14T04:12:39;100407.63;;;11.17;74.90
75063;BME280;63981;51.052;13.754;2023-06-14T04:15:06;100495.94;;;11.92;74.11
75063;BME280;63981;51.052;13.754;2023-06-14T04:17:34;100461.63;;;11.65;74.16
75063;BME280;63981;51.052;13.754;2023-06-14T04:20:02;100491.47;;;11.80;74.51
75063;BME280;63981;51.052;13.754;2023-06-14T04:22:34;100487.72;;;11.70;74.06
75063;BME280;63981;51.052;13.754;2023-06-14T04:25:03;100491.63;;;11.64;74.41
75063;BME280;63981;51.052;13.754;2023-06-14T04:27:32;100484.09;;;11.58;74.99
75063;BME280;63981;51.052;13.754;2023-06-14T04:30:02;100384.00;;;10.88;74.86
75063;BME280;63981;51.052;13.754;2023-06-14T04:32:34;100479.69;;;11.71;75.19
75063;BME280;63981;51.052;13.754;2023-06-14T04:35:07;100487.13;;;11.79;74.87
75063;BME280;63981;51.052;13.754;2023-06-14T04:37:34;100491.41;;;12.32;72.93
75063;BME280;63981;51.052;13.754;2023-06-14T04:40:00;100477.13;;;12.35;72.69
75063;BME280;63981;51.052;13.754;2023-06-14T04:42:26;100471.44;;;12.03;73.34
75063;BME280;63981;51.052;13.754;2023-06-14T04:44:57;100447.22;;;11.96;72.44
75063;BME280;63981;51.052;13.754;2023-06-14T04:47:23;100342.25;;;11.35;72.52
75063;BME280;63981;51.052;13.754;2023-06-14T04:49:57;100511.94;;;12.54;72.38
75063;BME280;63981;51.052;13.754;2023-06-14T04:52:23;100513.09;;;12.25;72.42
75063;BME280;63981;51.052;13.754;2023-06-14T04:54:53;100476.59;;;12.04;72.47
75063;BME280;63981;51.052;13.754;2023-06-14T04:57:22;100519.25;;;12.38;72.45
75063;BME280;63981;51.052;13.754;2023-06-14T04:59:52;100517.09;;;12.18;72.43
75063;BME280;63981;51.052;13.754;2023-06-14T05:02:22;100518.19;;;12.28;72.38
75063;BME280;63981;51.052;13.754;2023-06-14T05:04:48;100519.00;;;12.28;72.24
75063;BME280;63981;51.052;13.754;2023-06-14T05:07:14;100519.41;;;12.22;72.43
75063;BME280;63981;51.052;13.754;2023-06-14T05:09:41;100518.41;;;12.37;72.34
75063;BME280;63981;51.052;13.754;2023-06-14T05:12:07;100501.75;;;12.35;72.46
75063;BME280;63981;51.052;13.754;2023-06-14T05:14:34;100523.34;;;12.42;71.76
75063;BME280;63981;51.052;13.754;2023-06-14T05:17:00;100440.47;;;11.92;71.55
75063;BME280;63981;51.052;13.754;2023-06-14T05:19:26;100525.16;;;12.54;71.42
75063;BME280;63981;51.052;13.754;2023-06-14T05:21:53;100527.47;;;12.59;71.26
75063;BME280;63981;51.052;13.754;2023-06-14T05:24:19;100528.31;;;12.47;71.03
75063;BME280;63981;51.052;13.754;2023-06-14T05:26:46;100539.81;;;12.84;70.74
75063;BME280;63981;51.052;13.754;2023-06-14T05:29:12;100468.16;;;12.50;70.80
75063;BME280;63981;51.052;13.754;2023-06-14T05:31:38;100471.31;;;12.43;70.99
75063;BME280;63981;51.052;13.754;2023-06-14T05:34:04;100416.75;;;12.42;70.47
75063;BME280;63981;51.052;13.754;2023-06-14T05:36:30;100525.22;;;12.91;70.52
75063;BME280;63981;51.052;13.754;2023-06-14T05:38:56;100524.19;;;12.68;70.72
75063;BME280;63981;51.052;13.754;2023-06-14T05:41:28;100537.50;;;12.79;71.04
75063;BME280;63981;51.052;13.754;2023-06-14T05:43:55;100473.06;;;12.80;70.20
75063;BME280;63981;51.052;13.754;2023-06-14T05:46:22;100530.75;;;13.24;70.01
75063;BME280;63981;51.052;13.754;2023-06-14T05:48:50;100532.25;;;13.28;70.10
75063;BME280;63981;51.052;13.754;2023-06-14T05:51:16;100533.47;;;13.60;70.08
75063;BME280;63981;51.052;13.754;2023-06-14T05:53:47;100524.44;;;13.86;69.28
75063;BME280;63981;51.052;13.754;2023-06-14T05:56:14;100538.66;;;14.20;68.45
75063;BME280;63981;51.052;13.754;2023-06-14T05:58:40;100524.09;;;14.37;66.28
75063;BME280;63981;51.052;13.754;2023-06-14T06:01:06;100523.81;;;14.29;66.09
75063;BME280;63981;51.052;13.754;2023-06-14T06:03:32;100499.50;;;14.35;66.33
75063;BME280;63981;51.052;13.754;2023-06-14T06:05:58;100531.50;;;14.67;65.57
75063;BME280;63981;51.052;13.754;2023-06-14T06:08:24;100531.50;;;14.78;65.39
75063;BME280;63981;51.052;13.754;2023-06-14T06:10:50;100501.72;;;14.86;65.07
75063;BME280;63981;51.052;13.754;2023-06-14T06:13:15;100475.06;;;14.65;65.08
75063;BME280;63981;51.052;13.754;2023-06-14T06:15:41;100532.09;;;15.04;65.25
75063;BME280;63981;51.052;13.754;2023-06-14T06:18:07;100533.63;;;15.18;63.72
75063;BME280;63981;51.052;13.754;2023-06-14T06:20:32;100513.59;;;15.25;64.26
75063;BME280;63981;51.052;13.754;2023-06-14T06:22:59;100548.03;;;15.70;63.47
75063;BME280;63981;51.052;13.754;2023-06-14T06:25:25;100515.88;;;15.73;61.62
75063;BME280;63981;51.052;13.754;2023-06-14T06:27:53;100536.06;;;15.10;61.58
75063;BME280;63981;51.052;13.754;2023-06-14T06:30:19;100549.41;;;15.42;62.56
75063;BME280;63981;51.052;13.754;2023-06-14T06:32:46;100551.44;;;15.60;61.46
75063;BME280;63981;51.052;13.754;2023-06-14T06:35:13;100500.63;;;15.43;61.18
75063;BME280;63981;51.052;13.754;2023-06-14T06:37:40;100561.00;;;16.16;60.80
75063;BME280;63981;51.052;13.754;2023-06-14T06:40:06;100558.91;;;15.67;60.95
75063;BME280;63981;51.052;13.754;2023-06-14T06:42:34;100556.94;;;15.80;60.62
75063;BME280;63981;51.052;13.754;2023-06-14T06:45:03;100557.22;;;16.39;60.13
75063;BME280;63981;51.052;13.754;2023-06-14T06:47:30;100560.34;;;16.23;59.32
75063;BME280;63981;51.052;13.754;2023-06-14T06:49:56;100550.84;;;16.51;58.87
75063;BME280;63981;51.052;13.754;2023-06-14T06:52:22;100555.03;;;16.44;59.20
75063;BME280;63981;51.052;13.754;2023-06-14T06:54:48;100513.16;;;16.67;57.84
75063;BME280;63981;51.052;13.754;2023-06-14T06:57:14;100545.41;;;16.74;58.81
75063;BME280;63981;51.052;13.754;2023-06-14T06:59:40;100548.53;;;16.37;58.67
75063;BME280;63981;51.052;13.754;2023-06-14T07:02:06;100541.94;;;16.32;58.55
75063;BME280;63981;51.052;13.754;2023-06-14T07:04:32;100541.03;;;17.03;56.33
75063;BME280;63981;51.052;13.754;2023-06-14T07:06:58;100535.38;;;17.37;57.39
75063;BME280;63981;51.052;13.754;2023-06-14T07:09:23;100537.22;;;17.56;57.18
75063;BME280;63981;51.052;13.754;2023-06-14T07:11:50;100535.16;;;17.69;55.86
75063;BME280;63981;51.052;13.754;2023-06-14T07:14:16;100538.41;;;18.02;55.71
75063;BME280;63981;51.052;13.754;2023-06-14T07:16:46;100542.50;;;18.62;55.08
75063;BME280;63981;51.052;13.754;2023-06-14T07:19:12;100543.25;;;18.45;54.63
75063;BME280;63981;51.052;13.754;2023-06-14T07:21:38;100543.78;;;18.48;52.98
75063;BME280;63981;51.052;13.754;2023-06-14T07:24:05;100542.00;;;18.86;53.65
75063;BME280;63981;51.052;13.754;2023-06-14T07:26:32;100518.47;;;18.62;52.43
75063;BME280;63981;51.052;13.754;2023-06-14T07:28:58;100533.38;;;19.02;51.88
75063;BME280;63981;51.052;13.754;2023-06-14T07:31:24;100530.47;;;19.13;49.52
75063;BME280;63981;51.052;13.754;2023-06-14T07:33:50;100532.13;;;19.24;48.67
75063;BME280;63981;51.052;13.754;2023-06-14T07:36:16;100540.16;;;19.69;46.92
75063;BME280;63981;51.052;13.754;2023-06-14T07:38:43;100537.09;;;19.64;44.36
75063;BME280;63981;51.052;13.754;2023-06-14T07:41:09;100536.41;;;19.80;44.73
75063;BME280;63981;51.052;13.754;2023-06-14T07:43:35;100539.09;;;20.67;42.26
75063;BME280;63981;51.052;13.754;2023-06-14T07:46:01;100525.81;;;21.26;41.11
75063;BME280;63981;51.052;13.754;2023-06-14T07:48:28;100538.31;;;20.75;41.27
75063;BME280;63981;51.052;13.754;2023-06-14T07:50:54;100540.03;;;22.33;39.27
75063;BME280;63981;51.052;13.754;2023-06-14T07:53:20;100530.41;;;23.19;38.02
75063;BME280;63981;51.052;13.754;2023-06-14T07:55:46;100533.91;;;22.72;36.68
75063;BME280;63981;51.052;13.754;2023-06-14T07:58:12;100539.34;;;24.34;35.40
75063;BME280;63981;51.052;13.754;2023-06-14T08:00:38;100540.31;;;24.85;34.18
75063;BME280;63981;51.052;13.754;2023-06-14T08:03:04;100540.25;;;24.49;34.35
75063;BME280;63981;51.052;13.754;2023-06-14T08:05:30;100534.28;;;26.06;32.96
75063;BME280;63981;51.052;13.754;2023-06-14T08:07:56;100524.81;;;26.73;31.16
75063;BME280;63981;51.052;13.754;2023-06-14T08:10:22;100532.31;;;27.12;28.91
75063;BME280;63981;51.052;13.754;2023-06-14T08:12:48;100535.50;;;28.16;29.28
75063;BME280;63981;51.052;13.754;2023-06-14T08:15:16;100518.59;;;28.54;27.11
75063;BME280;63981;51.052;13.754;2023-06-14T08:17:43;100539.88;;;28.44;27.82
75063;BME280;63981;51.052;13.754;2023-06-14T08:20:09;100536.34;;;26.54;29.13
75063;BME280;63981;51.052;13.754;2023-06-14T08:22:36;100514.44;;;28.32;27.46
75063;BME280;63981;51.052;13.754;2023-06-14T08:25:03;100540.28;;;27.27;29.72
75063;BME280;63981;51.052;13.754;2023-06-14T08:27:30;100529.50;;;27.40;28.85
75063;BME280;63981;51.052;13.754;2023-06-14T08:29:56;100533.88;;;29.13;27.50
75063;BME280;63981;51.052;13.754;2023-06-14T08:32:22;100526.69;;;30.51;24.04
75063;BME280;63981;51.052;13.754;2023-06-14T08:34:48;100501.50;;;27.94;26.30
75063;BME280;63981;51.052;13.754;2023-06-14T08:37:14;100535.50;;;28.16;27.37
75063;BME280;63981;51.052;13.754;2023-06-14T08:39:40;100526.69;;;29.32;25.13
75063;BME280;63981;51.052;13.754;2023-06-14T08:42:07;100530.78;;;29.03;26.34
75063;BME280;63981;51.052;13.754;2023-06-14T08:44:34;100537.31;;;30.10;23.92
75063;BME280;63981;51.052;13.754;2023-06-14T08:47:00;100533.84;;;28.29;26.01
75063;BME280;63981;51.052;13.754;2023-06-14T08:49:26;100517.75;;;28.47;26.45
75063;BME280;63981;51.052;13.754;2023-06-14T08:51:57;100537.84;;;29.17;25.51
75063;BME280;63981;51.052;13.754;2023-06-14T08:54:23;100529.88;;;29.92;24.60
75063;BME280;63981;51.052;13.754;2023-06-14T08:56:53;100526.16;;;31.94;22.40
75063;BME280;63981;51.052;13.754;2023-06-14T08:59:26;100529.03;;;30.48;23.96
75063;BME280;63981;51.052;13.754;2023-06-14T09:01:53;100503.88;;;29.78;23.25
75063;BME280;63981;51.052;13.754;2023-06-14T09:04:23;100528.03;;;31.82;21.18
75063;BME280;63981;51.052;13.754;2023-06-14T09:06:55;100524.66;;;31.68;21.25
75063;BME280;63981;51.052;13.754;2023-06-14T09:09:22;100530.38;;;31.00;21.58
75063;BME280;63981;51.052;13.754;2023-06-14T09:11:51;100471.19;;;33.53;20.11
75063;BME280;63981;51.052;13.754;2023-06-14T09:14:23;100529.19;;;34.34;18.94
75063;BME280;63981;51.052;13.754;2023-06-14T09:16:53;100520.22;;;33.03;19.01
75063;BME280;63981;51.052;13.754;2023-06-14T09:19:23;100534.50;;;29.60;22.59
75063;BME280;63981;51.052;13.754;2023-06-14T09:21:49;100521.28;;;28.47;24.23
75063;BME280;63981;51.052;13.754;2023-06-14T09:24:19;100551.81;;;25.02;29.04
75063;BME280;63981;51.052;13.754;2023-06-14T09:26:48;100556.09;;;23.61;30.84
75063;BME280;63981;51.052;13.754;2023-06-14T09:29:17;100500.75;;;25.58;28.36
75063;BME280;63981;51.052;13.754;2023-06-14T09:31:46;100542.53;;;26.82;27.11
75063;BME280;63981;51.052;13.754;2023-06-14T09:34:12;100530.53;;;30.44;23.29
75063;BME280;63981;51.052;13.754;2023-06-14T09:36:39;100528.72;;;30.99;21.67
75063;BME280;63981;51.052;13.754;2023-06-14T09:39:06;100529.88;;;35.02;18.26
75063;BME280;63981;51.052;13.754;2023-06-14T09:44:02;100527.75;;;31.42;21.03
75063;BME280;63981;51.052;13.754;2023-06-14T09:46:29;100543.41;;;28.11;24.89
75063;BME280;63981;51.052;13.754;2023-06-14T09:48:58;100534.88;;;30.70;22.41
75063;BME280;63981;51.052;13.754;2023-06-14T09:51:25;100531.91;;;32.28;20.15
75063;BME280;63981;51.052;13.754;2023-06-14T09:53:52;100532.41;;;30.18;22.79
75063;BME280;63981;51.052;13.754;2023-06-14T09:56:26;100535.19;;;29.04;25.08
75063;BME280;63981;51.052;13.754;2023-06-14T09:58:55;100536.84;;;28.98;25.22
75063;BME280;63981;51.052;13.754;2023-06-14T10:01:26;100532.75;;;28.63;25.55
75063;BME280;63981;51.052;13.754;2023-06-14T10:04:05;100532.97;;;28.21;25.45
75063;BME280;63981;51.052;13.754;2023-06-14T10:06:32;100521.00;;;28.95;25.06
75063;BME280;63981;51.052;13.754;2023-06-14T10:09:01;100493.66;;;28.77;25.49
75063;BME280;63981;51.052;13.754;2023-06-14T10:11:27;100530.66;;;27.79;27.12
75063;BME280;63981;51.052;13.754;2023-06-14T10:13:54;100517.34;;;31.51;23.83
75063;BME280;63981;51.052;13.754;2023-06-14T10:16:32;100515.88;;;34.98;18.65
75063;BME280;63981;51.052;13.754;2023-06-14T10:19:22;100509.50;;;37.47;15.58
75063;BME280;63981;51.052;13.754;2023-06-14T10:21:57;100516.44;;;35.22;18.55
75063;BME280;63981;51.052;13.754;2023-06-14T10:24:38;100495.91;;;34.81;18.99
75063;BME280;63981;51.052;13.754;2023-06-14T10:27:06;100511.25;;;37.79;16.00
75063;BME280;63981;51.052;13.754;2023-06-14T10:32:26;100509.19;;;35.60;17.01
75063;BME280;63981;51.052;13.754;2023-06-14T10:34:55;100500.97;;;39.70;14.62
75063;BME280;63981;51.052;13.754;2023-06-14T10:37:21;100518.78;;;37.21;16.88
75063;BME280;63981;51.052;13.754;2023-06-14T10:39:47;100517.16;;;32.99;20.04
75063;BME280;63981;51.052;13.754;2023-06-14T10:42:14;100514.50;;;34.23;18.80
75063;BME280;63981;51.052;13.754;2023-06-14T10:47:35;100513.69;;;28.89;25.79
75063;BME280;63981;51.052;13.754;2023-06-14T10:50:03;100517.75;;;26.72;28.73
75063;BME280;63981;51.052;13.754;2023-06-14T10:52:33;100490.59;;;33.52;20.64
75063;BME280;63981;51.052;13.754;2023-06-14T10:57:36;100467.41;;;39.13;15.53
75063;BME280;63981;51.052;13.754;2023-06-14T11:00:04;100499.06;;;32.35;21.07
75063;BME280;63981;51.052;13.754;2023-06-14T11:02:52;100499.84;;;28.06;27.46
75063;BME280;63981;51.052;13.754;2023-06-14T11:05:27;100509.09;;;24.76;31.70
75063;BME280;63981;51.052;13.754;2023-06-14T11:10:39;100513.72;;;26.05;31.27
75063;BME280;63981;51.052;13.754;2023-06-14T11:13:06;100487.88;;;34.52;19.68
75063;BME280;63981;51.052;13.754;2023-06-14T11:15:34;100500.09;;;30.04;24.54
75063;BME280;63981;51.052;13.754;2023-06-14T11:18:07;100496.28;;;26.36;29.69
75063;BME280;63981;51.052;13.754;2023-06-14T11:20:36;100513.63;;;24.08;33.50
75063;BME280;63981;51.052;13.754;2023-06-14T11:23:03;100495.06;;;23.76;34.13
75063;BME280;63981;51.052;13.754;2023-06-14T11:25:30;100464.53;;;25.10;32.87
75063;BME280;63981;51.052;13.754;2023-06-14T11:27:56;100509.00;;;24.17;34.34
75063;BME280;63981;51.052;13.754;2023-06-14T11:30:23;100500.63;;;23.20;35.63
75063;BME280;63981;51.052;13.754;2023-06-14T11:32:50;100515.97;;;22.56;37.52
75063;BME280;63981;51.052;13.754;2023-06-14T11:40:07;100505.34;;;21.25;40.04
75063;BME280;63981;51.052;13.754;2023-06-14T11:42:34;100516.84;;;22.24;38.65
75063;BME280;63981;51.052;13.754;2023-06-14T11:45:00;100513.66;;;22.37;38.70
75063;BME280;63981;51.052;13.754;2023-06-14T11:47:46;100516.16;;;21.73;39.91
75063;BME280;63981;51.052;13.754;2023-06-14T11:50:12;100511.78;;;22.54;38.73
75063;BME280;63981;51.052;13.754;2023-06-14T11:52:37;100510.84;;;22.06;39.93
75063;BME280;63981;51.052;13.754;2023-06-14T11:55:04;100512.38;;;22.80;39.52
75063;BME280;63981;51.052;13.754;2023-06-14T11:57:33;100500.50;;;22.66;38.74
75063;BME280;63981;51.052;13.754;2023-06-14T12:00:03;100502.66;;;22.63;38.94
75063;BME280;63981;51.052;13.754;2023-06-14T12:02:37;100504.13;;;22.82;39.77
75063;BME280;63981;51.052;13.754;2023-06-14T12:05:07;100457.16;;;22.06;39.62
75063;BME280;63981;51.052;13.754;2023-06-14T12:07:38;100496.56;;;23.24;37.88
75063;BME280;63981;51.052;13.754;2023-06-14T12:10:08;100491.63;;;24.42;36.33
75063;BME280;63981;51.052;13.754;2023-06-14T12:12:38;100505.94;;;24.73;35.84
75063;BME280;63981;51.052;13.754;2023-06-14T12:15:05;100502.16;;;24.29;35.70
75063;BME280;63981;51.052;13.754;2023-06-14T12:17:35;100498.41;;;24.68;35.86
75063;BME280;63981;51.052;13.754;2023-06-14T12:20:06;100505.47;;;22.94;38.87
75063;BME280;63981;51.052;13.754;2023-06-14T12:22:55;100502.13;;;23.23;38.30
75063;BME280;63981;51.052;13.754;2023-06-14T12:25:34;100484.63;;;22.96;38.60
75063;BME280;63981;51.052;13.754;2023-06-14T12:28:05;100508.16;;;22.78;38.72
75063;BME280;63981;51.052;13.754;2023-06-14T12:30:32;100499.88;;;23.35;37.90
75063;BME280;63981;51.052;13.754;2023-06-14T12:32:58;100502.72;;;23.02;39.20
75063;BME280;63981;51.052;13.754;2023-06-14T12:35:24;100496.09;;;28.14;31.68
75063;BME280;63981;51.052;13.754;2023-06-14T12:37:51;100480.00;;;35.00;21.59
75063;BME280;63981;51.052;13.754;2023-06-14T12:40:17;100464.53;;;40.55;17.05
75063;BME280;63981;51.052;13.754;2023-06-14T12:42:44;100461.50;;;38.76;16.48
75063;BME280;63981;51.052;13.754;2023-06-14T12:45:10;100453.06;;;42.26;15.57
75063;BME280;63981;51.052;13.754;2023-06-14T12:47:36;100453.75;;;43.59;14.60
75063;BME280;63981;51.052;13.754;2023-06-14T12:50:02;100458.53;;;36.99;19.11
75063;BME280;63981;51.052;13.754;2023-06-14T12:52:29;100481.34;;;28.88;28.39
75063;BME280;63981;51.052;13.754;2023-06-14T12:54:55;100486.03;;;26.03;32.48
75063;BME280;63981;51.052;13.754;2023-06-14T12:57:23;100463.56;;;23.99;35.54
75063;BME280;63981;51.052;13.754;2023-06-14T12:59:48;100473.03;;;27.30;31.73
75063;BME280;63981;51.052;13.754;2023-06-14T13:02:19;100467.88;;;30.07;27.21
75063;BME280;63981;51.052;13.754;2023-06-14T13:04:47;100478.13;;;26.02;32.78
75063;BME280;63981;51.052;13.754;2023-06-14T13:07:13;100475.19;;;24.37;36.50
75063;BME280;63981;51.052;13.754;2023-06-14T13:09:42;100453.06;;;31.73;25.14
75063;BME280;63981;51.052;13.754;2023-06-14T13:12:10;100444.56;;;38.02;17.98
75063;BME280;63981;51.052;13.754;2023-06-14T13:14:37;100430.13;;;40.66;15.77
75063;BME280;63981;51.052;13.754;2023-06-14T13:17:03;100436.88;;;42.33;13.91
75063;BME280;63981;51.052;13.754;2023-06-14T13:19:29;100431.31;;;40.12;15.36